Time;durP1;ratioP1;P1;durP2;ratioP2;P2;SDS_P1;SDS_P2;PMS_P1;PMS_P2;Temp;Humidity;BMP_temperature;BMP_pressure;BME280_temperature;BME280_humidity;BME280_pressure;Samples;Min_cycle;Max_cycle;Signal;HPM_P1;HPM_P2
2021/07/19 00:00:25;;;;;;;13.25;10.38;;;27.70;74.30;;;;;;5035681;28;20503;-65
2021/07/19 00:02:54;;;;;;;13.07;9.85;;;27.70;74.40;;;;;;5033996;28;20025;-65
2021/07/19 00:05:22;;;;;;;11.52;9.48;;;27.70;74.50;;;;;;5035124;28;20100;-65
2021/07/19 00:07:49;;;;;;;11.85;10.10;;;27.70;74.60;;;;;;5034612;28;20021;-65
2021/07/19 00:10:17;;;;;;;13.25;9.85;;;27.70;74.60;;;;;;5032894;28;20381;-65
2021/07/19 00:12:44;;;;;;;14.13;10.15;;;27.70;74.60;;;;;;5034953;28;20065;-65
2021/07/19 00:15:14;;;;;;;11.68;10.38;;;27.70;74.90;;;;;;5034516;28;20379;-65
2021/07/19 00:17:41;;;;;;;12.95;10.52;;;27.70;75.10;;;;;;5035435;28;20524;-65
2021/07/19 00:20:08;;;;;;;12.10;10.13;;;27.70;75.30;;;;;;5034526;28;20136;-65
2021/07/19 00:22:34;;;;;;;12.43;10.18;;;27.70;75.40;;;;;;5034008;28;20037;-65
2021/07/19 00:25:00;;;;;;;11.55;10.32;;;27.70;75.60;;;;;;5025134;28;20034;-65
2021/07/19 00:27:26;;;;;;;12.57;9.85;;;27.70;75.60;;;;;;5033880;28;20030;-65
2021/07/19 00:29:51;;;;;;;11.48;9.77;;;27.70;75.70;;;;;;5032628;28;20029;-65
2021/07/19 00:32:17;;;;;;;12.43;10.77;;;27.70;75.90;;;;;;5032563;28;20013;-65
2021/07/19 00:34:43;;;;;;;12.38;10.00;;;27.70;75.90;;;;;;5025738;28;20036;-65
2021/07/19 00:37:08;;;;;;;12.30;9.88;;;27.70;76.00;;;;;;5033457;28;20044;-65
2021/07/19 00:39:34;;;;;;;12.38;10.23;;;27.70;76.20;;;;;;5033482;28;20076;-65
2021/07/19 00:42:00;;;;;;;13.15;9.98;;;27.70;76.20;;;;;;5032436;28;20082;-65
2021/07/19 00:44:26;;;;;;;11.77;10.27;;;27.60;75.90;;;;;;5034406;28;20385;-65
2021/07/19 00:46:53;;;;;;;13.43;10.05;;;27.60;76.20;;;;;;5034770;28;20354;-65
2021/07/19 00:49:21;;;;;;;13.23;10.27;;;27.60;76.30;;;;;;5017919;28;20038;-65
2021/07/19 00:51:48;;;;;;;17.48;10.20;;;27.60;76.40;;;;;;5021238;28;20486;-65
2021/07/19 00:54:19;;;;;;;11.27;10.07;;;27.60;76.30;;;;;;5032527;28;20033;-65
2021/07/19 00:56:47;;;;;;;12.68;10.00;;;27.60;76.40;;;;;;5034337;28;20026;-65
2021/07/19 00:59:21;;;;;;;17.65;10.55;;;27.50;76.30;;;;;;5031886;28;20553;-65
2021/07/19 01:01:48;;;;;;;11.13;9.95;;;27.50;76.40;;;;;;5034018;28;20044;-65
2021/07/19 01:04:16;;;;;;;13.32;10.88;;;27.40;76.70;;;;;;5033253;28;20018;-65
2021/07/19 01:06:43;;;;;;;15.93;11.35;;;27.40;77.10;;;;;;5033964;28;20032;-65
2021/07/19 01:09:09;;;;;;;12.45;10.95;;;27.40;77.50;;;;;;5033137;28;20034;-65
2021/07/19 01:11:36;;;;;;;13.43;10.43;;;27.40;77.50;;;;;;5032179;28;20025;-65
2021/07/19 01:14:03;;;;;;;13.73;11.52;;;27.40;77.50;;;;;;5033600;28;20147;-65
2021/07/19 01:16:28;;;;;;;14.35;10.70;;;27.40;77.70;;;;;;5033812;28;20100;-65
2021/07/19 01:18:54;;;;;;;13.95;11.30;;;27.40;77.80;;;;;;5033759;28;20537;-65
2021/07/19 01:22:10;;;;;;;13.50;10.20;;;27.40;78.00;;;;;;5032727;28;20180;-65
2021/07/19 01:25:03;;;;;;;12.57;10.00;;;27.40;77.50;;;;;;5030632;28;20116;-65
2021/07/19 01:27:58;;;;;;;12.07;9.77;;;27.40;77.60;;;;;;5017641;28;20025;-65
2021/07/19 01:30:27;;;;;;;10.70;9.60;;;27.30;77.30;;;;;;5032900;28;20025;-65
2021/07/19 01:32:54;;;;;;;12.23;9.82;;;27.30;76.90;;;;;;5033767;28;20385;-65
2021/07/19 01:35:21;;;;;;;14.00;10.38;;;27.30;76.60;;;;;;5032797;28;20052;-65
2021/07/19 01:37:47;;;;;;;14.82;10.48;;;27.30;76.50;;;;;;5031944;28;20079;-65
2021/07/19 01:40:15;;;;;;;12.25;10.18;;;27.30;76.30;;;;;;5023704;28;20052;-65
2021/07/19 01:42:42;;;;;;;13.18;10.68;;;27.30;76.10;;;;;;5032974;28;20029;-65
2021/07/19 01:45:09;;;;;;;13.18;10.50;;;27.20;75.80;;;;;;5033326;28;20113;-65
2021/07/19 01:47:36;;;;;;;13.15;10.77;;;27.20;75.40;;;;;;5033441;28;20355;-65
2021/07/19 01:50:04;;;;;;;17.33;10.93;;;27.20;75.10;;;;;;5032751;28;20029;-65
2021/07/19 01:52:30;;;;;;;13.18;11.02;;;27.20;75.10;;;;;;5024132;28;20121;-65
2021/07/19 01:54:55;;;;;;;13.63;11.35;;;27.20;74.90;;;;;;5013657;28;20593;-65
2021/07/19 01:57:22;;;;;;;11.90;10.30;;;27.10;75.20;;;;;;5017238;28;20033;-65
2021/07/19 01:59:48;;;;;;;12.73;10.43;;;27.20;74.90;;;;;;5032676;28;20025;-65
2021/07/19 02:02:18;;;;;;;15.52;11.18;;;27.10;74.90;;;;;;5032571;28;20381;-65
2021/07/19 02:04:44;;;;;;;12.93;10.45;;;27.10;74.80;;;;;;5026238;28;20033;-65
2021/07/19 02:07:10;;;;;;;13.95;9.98;;;27.10;75.10;;;;;;5021925;28;20040;-65
2021/07/19 02:09:36;;;;;;;13.70;11.25;;;27.10;75.10;;;;;;5030061;28;20100;-65
2021/07/19 02:12:03;;;;;;;12.60;10.73;;;27.10;74.90;;;;;;5032941;28;20025;-65
2021/07/19 02:14:29;;;;;;;13.55;10.35;;;27.10;74.90;;;;;;5030547;28;20485;-65
2021/07/19 02:16:57;;;;;;;13.88;11.10;;;27.10;74.90;;;;;;5033003;28;20033;-65
2021/07/19 02:19:28;;;;;;;16.65;11.35;;;27.10;75.10;;;;;;5031976;28;20062;-65
2021/07/19 02:21:55;;;;;;;12.27;10.88;;;27.10;75.20;;;;;;5026433;28;20504;-65
2021/07/19 02:24:26;;;;;;;13.40;10.77;;;27.10;75.30;;;;;;5021359;28;20033;-65
2021/07/19 02:26:54;;;;;;;12.55;10.60;;;27.10;75.40;;;;;;5032719;28;20536;-65
2021/07/19 02:29:21;;;;;;;13.85;10.57;;;27.10;75.40;;;;;;5030812;28;20017;-65
2021/07/19 02:31:49;;;;;;;12.48;10.05;;;27.10;75.50;;;;;;5032759;28;20033;-65
2021/07/19 02:34:20;;;;;;;13.23;10.20;;;27.10;75.40;;;;;;5025152;28;20018;-65
2021/07/19 02:36:48;;;;;;;12.50;10.02;;;27.20;75.60;;;;;;5024019;28;20366;-65
2021/07/19 02:39:16;;;;;;;13.27;9.50;;;27.20;75.50;;;;;;5031410;28;20497;-65
2021/07/19 02:41:43;;;;;;;12.23;10.40;;;27.20;75.50;;;;;;5030933;28;20130;-65
2021/07/19 02:44:09;;;;;;;11.23;10.02;;;27.20;75.50;;;;;;5026747;28;20074;-65
2021/07/19 02:46:37;;;;;;;14.52;10.45;;;27.20;76.20;;;;;;5031808;28;20564;-65
2021/07/19 02:49:09;;;;;;;12.85;10.35;;;27.20;75.70;;;;;;5031582;28;20478;-65
2021/07/19 02:51:35;;;;;;;12.07;10.75;;;27.20;75.60;;;;;;5031344;28;20388;-65
2021/07/19 02:54:03;;;;;;;11.45;10.25;;;27.20;75.60;;;;;;5031743;28;20028;-65
2021/07/19 02:56:33;;;;;;;11.48;10.27;;;27.30;75.60;;;;;;5031666;28;20379;-65
2021/07/19 02:58:59;;;;;;;12.75;10.35;;;27.30;75.70;;;;;;5031580;28;20017;-65
2021/07/19 03:01:26;;;;;;;15.25;10.85;;;27.30;75.50;;;;;;5032467;28;20040;-65
2021/07/19 03:03:57;;;;;;;13.30;11.40;;;27.40;75.40;;;;;;5031359;28;20025;-65
2021/07/19 03:06:28;;;;;;;11.02;9.75;;;27.40;75.70;;;;;;5032162;28;20022;-65
2021/07/19 03:08:54;;;;;;;11.63;10.40;;;27.40;75.80;;;;;;5032259;28;20104;-65
2021/07/19 03:11:29;;;;;;;12.18;10.65;;;27.50;75.70;;;;;;5029350;28;20470;-65
2021/07/19 03:13:58;;;;;;;15.18;10.73;;;27.50;75.60;;;;;;5031763;28;20028;-65
2021/07/19 03:16:27;;;;;;;14.30;10.93;;;27.50;75.40;;;;;;5032223;28;20084;-65
2021/07/19 03:18:54;;;;;;;11.85;9.98;;;27.60;75.30;;;;;;5030692;28;20029;-64
2021/07/19 03:21:21;;;;;;;13.38;10.32;;;27.70;75.20;;;;;;5031100;28;20056;-64
2021/07/19 03:23:51;;;;;;;13.90;10.77;;;27.70;75.00;;;;;;5031815;28;20354;-64
2021/07/19 03:26:19;;;;;;;13.48;10.18;;;27.80;75.10;;;;;;5035228;28;20025;-64
2021/07/19 03:28:46;;;;;;;14.60;11.38;;;27.90;75.00;;;;;;5034360;28;20038;-64
2021/07/19 03:31:12;;;;;;;12.40;10.00;;;27.90;75.10;;;;;;5033260;28;20497;-64
2021/07/19 03:33:42;;;;;;;11.23;10.02;;;28.10;75.50;;;;;;5020639;28;20085;-65
2021/07/19 03:36:10;;;;;;;12.70;11.38;;;28.20;75.40;;;;;;5035865;28;20429;-64
2021/07/19 03:38:37;;;;;;;11.60;10.35;;;28.30;75.40;;;;;;5035266;28;20025;-64
2021/07/19 03:41:04;;;;;;;13.10;10.85;;;28.50;75.40;;;;;;5032935;28;20030;-64
2021/07/19 03:43:31;;;;;;;12.65;10.73;;;28.80;75.20;;;;;;5018358;28;20356;-64
2021/07/19 03:45:57;;;;;;;11.95;10.65;;;29.00;75.00;;;;;;5027857;28;20097;-64
2021/07/19 03:48:23;;;;;;;11.30;9.73;;;29.30;74.40;;;;;;5034876;28;20057;-64
2021/07/19 03:50:51;;;;;;;12.27;10.02;;;29.70;73.50;;;;;;5034800;28;20109;-64
2021/07/19 03:53:16;;;;;;;17.30;10.93;;;30.20;72.60;;;;;;5033740;28;20099;-64
2021/07/19 03:55:47;;;;;;;11.68;10.48;;;30.60;71.10;;;;;;5034678;28;20029;-64
2021/07/19 03:58:14;;;;;;;12.10;10.07;;;31.20;69.60;;;;;;5032920;28;20041;-64
2021/07/19 04:00:41;;;;;;;13.07;9.85;;;31.90;68.20;;;;;;5031209;28;20034;-64
2021/07/19 04:03:17;;;;;;;10.43;9.40;;;32.60;66.70;;;;;;5033107;28;20037;-64
2021/07/19 04:05:50;;;;;;;11.70;9.65;;;33.50;64.60;;;;;;5030377;28;20496;-64
2021/07/19 04:08:16;;;;;;;12.27;9.73;;;34.20;62.90;;;;;;5025200;28;20037;-64
2021/07/19 04:10:43;;;;;;;11.20;10.10;;;34.90;61.50;;;;;;5022639;28;20486;-64
2021/07/19 04:13:10;;;;;;;10.20;9.07;;;35.60;59.90;;;;;;5023003;28;20037;-64
2021/07/19 04:15:42;;;;;;;11.88;9.48;;;36.20;58.50;;;;;;5024322;28;20034;-64
2021/07/19 04:18:07;;;;;;;11.00;9.27;;;36.80;57.00;;;;;;5024207;28;20454;-64
2021/07/19 04:20:33;;;;;;;10.48;9.13;;;37.40;56.00;;;;;;5031637;28;20081;-64
2021/07/19 04:22:59;;;;;;;10.32;9.05;;;38.00;55.00;;;;;;5032747;28;20375;-64
2021/07/19 04:25:26;;;;;;;10.80;9.40;;;38.60;53.60;;;;;;5031359;28;20557;-64
2021/07/19 04:27:52;;;;;;;10.75;8.80;;;39.10;52.80;;;;;;5030117;28;20033;-64
2021/07/19 04:30:18;;;;;;;11.55;8.73;;;39.60;51.70;;;;;;5024554;28;20018;-64
2021/07/19 04:32:44;;;;;;;10.40;8.90;;;40.10;50.50;;;;;;5023269;28;20044;-64
2021/07/19 04:35:21;;;;;;;10.75;8.18;;;40.50;49.50;;;;;;5029142;28;20033;-64
2021/07/19 04:37:52;;;;;;;10.88;8.60;;;41.00;49.50;;;;;;5033110;28;20025;-64
2021/07/19 04:40:18;;;;;;;10.65;8.35;;;41.30;48.40;;;;;;5028470;28;20030;-64
2021/07/19 04:42:44;;;;;;;11.65;8.18;;;41.60;47.70;;;;;;5032491;28;20132;-64
2021/07/19 04:45:11;;;;;;;8.77;7.88;;;41.80;47.10;;;;;;5020484;28;20381;-64
2021/07/19 04:47:37;;;;;;;10.52;8.45;;;42.10;46.70;;;;;;5032023;28;20045;-64
2021/07/19 04:50:03;;;;;;;10.75;7.93;;;42.40;46.10;;;;;;5028470;28;20095;-64
2021/07/19 04:52:31;;;;;;;10.32;8.38;;;42.60;45.60;;;;;;5029018;28;20034;-64
2021/07/19 04:54:58;;;;;;;8.20;7.43;;;42.90;45.30;;;;;;5032753;28;20038;-64
2021/07/19 04:57:25;;;;;;;9.60;8.60;;;43.10;45.20;;;;;;5031009;28;20071;-64
2021/07/19 04:59:52;;;;;;;10.57;7.95;;;43.20;44.60;;;;;;5026285;28;20091;-64
2021/07/19 05:02:20;;;;;;;11.00;7.43;;;43.50;44.30;;;;;;5027487;28;20053;-64
2021/07/19 05:04:49;;;;;;;8.40;7.55;;;43.70;43.90;;;;;;5020220;28;20036;-64
2021/07/19 05:07:18;;;;;;;10.05;7.78;;;43.80;43.70;;;;;;5025946;28;20021;-64
2021/07/19 05:09:46;;;;;;;11.05;8.23;;;43.80;43.30;;;;;;5027322;28;20041;-64
2021/07/19 05:12:16;;;;;;;9.77;8.13;;;44.00;43.20;;;;;;5030582;28;20021;-64
2021/07/19 05:14:42;;;;;;;11.00;7.93;;;44.10;43.10;;;;;;5027488;28;20032;-64
2021/07/19 05:17:14;;;;;;;10.85;8.20;;;44.10;42.80;;;;;;5032990;28;20018;-64
2021/07/19 05:19:41;;;;;;;9.15;8.20;;;44.20;42.60;;;;;;5022940;28;20049;-65
2021/07/19 05:22:13;;;;;;;9.73;7.72;;;44.30;42.40;;;;;;5027142;28;20037;-65
2021/07/19 05:24:41;;;;;;;9.15;7.82;;;44.40;42.50;;;;;;5026837;28;20021;-65
2021/07/19 05:27:08;;;;;;;10.75;8.05;;;44.40;41.90;;;;;;5026812;28;20037;-65
2021/07/19 05:29:35;;;;;;;11.07;7.85;;;44.40;41.80;;;;;;5020387;28;20031;-65
2021/07/19 05:32:05;;;;;;;10.10;8.55;;;44.20;41.60;;;;;;5024296;28;20389;-65
2021/07/19 05:34:31;;;;;;;10.88;7.85;;;43.80;41.80;;;;;;5017268;28;20602;-65
2021/07/19 05:36:58;;;;;;;10.52;8.55;;;43.20;42.00;;;;;;5023520;28;20091;-65
2021/07/19 05:39:23;;;;;;;10.60;8.13;;;42.60;42.60;;;;;;5023801;28;20064;-65
2021/07/19 05:41:49;;;;;;;12.30;8.55;;;41.80;43.50;;;;;;5025476;28;20059;-65
2021/07/19 05:44:15;;;;;;;11.52;8.93;;;41.00;44.10;;;;;;5018152;28;20504;-66
2021/07/19 05:46:41;;;;;;;10.55;8.98;;;40.30;45.00;;;;;;5019448;28;20466;-65
2021/07/19 05:49:07;;;;;;;9.38;8.27;;;39.60;45.90;;;;;;5025952;28;20029;-65
2021/07/19 05:51:33;;;;;;;13.32;9.27;;;38.90;46.80;;;;;;5020973;28;20025;-66
2021/07/19 05:54:01;;;;;;;10.85;8.93;;;38.40;47.60;;;;;;5020762;28;20052;-65
2021/07/19 05:56:27;;;;;;;12.32;9.35;;;37.80;48.50;;;;;;5019015;28;20061;-65
2021/07/19 05:58:53;;;;;;;11.30;9.40;;;37.30;49.30;;;;;;5014557;28;20049;-64
2021/07/19 06:01:19;;;;;;;11.18;9.00;;;36.90;49.70;;;;;;5015578;28;20123;-64
2021/07/19 06:03:44;;;;;;;13.93;9.32;;;36.50;50.10;;;;;;5017552;28;20033;-64
2021/07/19 06:06:10;;;;;;;11.52;8.95;;;36.30;50.40;;;;;;5015334;28;20498;-65
2021/07/19 06:08:36;;;;;;;11.38;9.30;;;36.00;51.30;;;;;;5015023;28;20072;-64
2021/07/19 06:11:03;;;;;;;12.88;10.23;;;35.80;51.50;;;;;;5018858;28;20037;-66
2021/07/19 06:13:28;;;;;;;13.15;10.50;;;35.50;52.00;;;;;;5012793;28;20032;-65
2021/07/19 06:15:54;;;;;;;11.93;9.98;;;35.30;52.60;;;;;;5014541;28;20465;-65
2021/07/19 06:18:20;;;;;;;14.02;10.75;;;35.10;53.40;;;;;;5014009;28;20485;-65
2021/07/19 06:20:45;;;;;;;12.63;10.10;;;34.90;53.50;;;;;;5013948;28;20050;-65
2021/07/19 06:23:11;;;;;;;13.50;9.85;;;34.70;53.60;;;;;;5021987;28;20035;-66
2021/07/19 06:25:41;;;;;;;11.20;9.82;;;34.50;54.00;;;;;;5015520;28;20049;-65
2021/07/19 06:28:08;;;;;;;14.02;9.75;;;34.40;54.70;;;;;;5019676;28;20030;-65
2021/07/19 06:30:34;;;;;;;12.15;10.32;;;34.20;55.10;;;;;;5017113;28;20085;-66
2021/07/19 06:33:00;;;;;;;12.57;9.82;;;34.10;55.40;;;;;;5025159;28;20505;-65
2021/07/19 06:35:26;;;;;;;11.95;10.25;;;34.00;55.30;;;;;;5018958;28;20037;-65
2021/07/19 06:37:52;;;;;;;11.18;9.98;;;33.90;55.50;;;;;;5023395;28;20033;-66
2021/07/19 06:40:19;;;;;;;13.80;10.20;;;33.70;55.80;;;;;;5028055;28;21143;-66
2021/07/19 06:42:45;;;;;;;13.70;10.13;;;33.70;56.00;;;;;;5027009;28;20037;-66
2021/07/19 06:45:12;;;;;;;14.77;10.55;;;33.50;56.20;;;;;;5022626;28;20083;-65
2021/07/19 06:47:39;;;;;;;14.68;10.27;;;33.40;56.50;;;;;;5015512;28;20482;-66
2021/07/19 06:50:07;;;;;;;13.25;10.02;;;33.40;56.70;;;;;;5021634;28;20053;-65
2021/07/19 06:52:33;;;;;;;11.88;10.35;;;33.30;56.60;;;;;;5028758;28;20036;-66
2021/07/19 06:54:58;;;;;;;16.27;10.00;;;33.20;56.80;;;;;;5022859;28;20033;-66
2021/07/19 06:57:24;;;;;;;11.60;10.38;;;33.10;57.30;;;;;;5026817;28;20048;-65
2021/07/19 06:59:50;;;;;;;13.68;9.93;;;33.10;57.30;;;;;;5023817;28;20046;-66
2021/07/19 07:02:17;;;;;;;13.25;10.85;;;33.00;57.40;;;;;;5020160;28;20117;-63
2021/07/19 07:04:43;;;;;;;13.80;9.98;;;32.90;57.70;;;;;;5019708;28;20030;-63
2021/07/19 07:07:10;;;;;;;13.20;9.23;;;32.90;58.00;;;;;;5028072;28;20040;-64
2021/07/19 07:09:35;;;;;;;10.70;9.18;;;32.80;57.90;;;;;;5025210;28;20111;-64
2021/07/19 07:12:01;;;;;;;11.25;8.45;;;32.80;57.00;;;;;;5024327;28;20090;-66
2021/07/19 07:14:27;;;;;;;13.48;8.77;;;32.70;56.50;;;;;;5022433;28;20029;-66
2021/07/19 07:16:52;;;;;;;12.23;8.85;;;32.70;56.80;;;;;;5018875;28;20037;-65
2021/07/19 07:19:18;;;;;;;10.10;8.88;;;32.60;57.00;;;;;;5018136;28;20057;-67
2021/07/19 07:21:44;;;;;;;13.32;9.57;;;32.60;57.00;;;;;;5029290;28;20032;-66
2021/07/19 07:24:10;;;;;;;14.90;9.85;;;32.60;57.10;;;;;;5032473;28;20029;-65
2021/07/19 07:26:36;;;;;;;10.40;9.30;;;32.50;57.40;;;;;;5027073;28;20072;-64
2021/07/19 07:29:02;;;;;;;14.50;9.50;;;32.50;57.80;;;;;;5028014;28;20071;-66
2021/07/19 07:31:28;;;;;;;11.30;9.15;;;32.50;57.40;;;;;;5025794;28;20025;-67
2021/07/19 07:33:58;;;;;;;10.75;9.63;;;32.40;57.50;;;;;;5027611;28;20045;-66
2021/07/19 07:36:26;;;;;;;10.85;9.25;;;32.40;57.70;;;;;;5025431;28;20037;-65
2021/07/19 07:38:52;;;;;;;9.90;8.75;;;32.40;58.00;;;;;;5026313;28;20044;-65
2021/07/19 07:41:19;;;;;;;11.50;8.93;;;32.40;58.00;;;;;;5021898;28;20025;-66
2021/07/19 07:43:45;;;;;;;12.80;9.85;;;32.40;58.20;;;;;;5020214;28;20462;-66
2021/07/19 07:46:12;;;;;;;12.25;9.57;;;32.40;58.40;;;;;;5016596;28;20041;-64
2021/07/19 07:48:38;;;;;;;11.40;9.80;;;32.40;58.90;;;;;;5018164;28;20021;-65
2021/07/19 07:51:10;;;;;;;12.30;9.85;;;32.40;59.20;;;;;;5016625;28;20034;-64
2021/07/19 07:53:36;;;;;;;13.80;10.65;;;32.40;59.10;;;;;;5022784;28;20452;-66
2021/07/19 07:56:02;;;;;;;10.95;9.52;;;32.30;58.90;;;;;;5025894;28;20114;-65
2021/07/19 07:58:28;;;;;;;12.68;9.60;;;32.30;59.00;;;;;;5021929;28;20119;-64
2021/07/19 08:00:55;;;;;;;12.35;10.18;;;32.30;59.30;;;;;;5017388;28;20030;-63
2021/07/19 08:03:21;;;;;;;11.98;10.07;;;32.30;59.50;;;;;;5019735;28;20127;-64
2021/07/19 08:05:47;;;;;;;10.95;9.82;;;32.30;59.40;;;;;;5025280;28;20027;-64
2021/07/19 08:08:12;;;;;;;11.32;10.15;;;32.30;59.50;;;;;;5022412;28;20018;-63
2021/07/19 08:10:39;;;;;;;12.98;10.35;;;32.30;59.50;;;;;;5003184;28;20056;-65
2021/07/19 08:13:05;;;;;;;12.98;10.18;;;32.30;59.40;;;;;;5014057;28;20044;-65
2021/07/19 08:15:33;;;;;;;13.35;10.38;;;32.30;59.60;;;;;;5017938;28;20057;-64
2021/07/19 08:17:58;;;;;;;11.32;10.05;;;32.30;59.80;;;;;;5016215;28;20033;-66
2021/07/19 08:20:24;;;;;;;12.63;10.10;;;32.30;60.00;;;;;;5017277;28;20057;-66
2021/07/19 08:22:50;;;;;;;15.45;9.85;;;32.20;59.80;;;;;;5009808;28;20316;-66
2021/07/19 08:25:17;;;;;;;11.77;9.23;;;32.20;59.60;;;;;;5015141;28;20528;-65
2021/07/19 08:27:44;;;;;;;12.20;9.43;;;32.20;59.40;;;;;;5022527;28;20045;-66
2021/07/19 08:30:11;;;;;;;12.27;9.82;;;32.20;59.60;;;;;;5009106;28;20038;-66
2021/07/19 08:32:37;;;;;;;11.60;9.40;;;32.20;59.50;;;;;;5012006;28;20104;-65
2021/07/19 08:35:09;;;;;;;10.88;9.15;;;32.20;59.60;;;;;;5020438;28;20129;-65
2021/07/19 08:37:44;;;;;;;10.52;8.75;;;32.20;59.50;;;;;;5022797;28;20096;-64
2021/07/19 08:40:11;;;;;;;10.75;9.35;;;32.10;59.40;;;;;;5019598;28;20171;-65
2021/07/19 08:42:38;;;;;;;12.85;10.20;;;32.10;59.40;;;;;;5023749;28;20083;-65
2021/07/19 08:45:07;;;;;;;11.23;9.25;;;32.10;59.40;;;;;;5018063;28;20045;-65
2021/07/19 08:47:37;;;;;;;11.00;9.35;;;32.10;59.70;;;;;;5022279;28;20026;-65
2021/07/19 08:50:07;;;;;;;12.88;9.50;;;32.10;59.70;;;;;;5021465;28;20036;-65
2021/07/19 08:52:33;;;;;;;11.70;9.40;;;32.00;60.10;;;;;;5020366;28;20400;-65
2021/07/19 08:54:59;;;;;;;12.43;9.70;;;32.00;59.70;;;;;;5022295;28;20025;-66
2021/07/19 08:57:26;;;;;;;11.45;9.88;;;32.00;60.00;;;;;;5018306;28;20079;-66
2021/07/19 08:59:53;;;;;;;11.50;9.00;;;32.00;59.70;;;;;;5016823;28;20041;-66
2021/07/19 09:02:19;;;;;;;13.20;9.70;;;31.90;59.60;;;;;;5008582;28;20156;-65
2021/07/19 09:04:44;;;;;;;12.25;9.00;;;31.90;60.10;;;;;;5007046;28;20040;-64
2021/07/19 09:07:11;;;;;;;12.52;9.52;;;31.80;59.10;;;;;;5016818;28;20051;-64
2021/07/19 09:09:37;;;;;;;10.65;9.48;;;31.80;58.80;;;;;;5014365;28;20040;-65
2021/07/19 09:12:05;;;;;;;9.57;8.57;;;31.80;58.50;;;;;;5015318;28;20028;-65
2021/07/19 09:14:31;;;;;;;13.23;9.80;;;31.80;58.60;;;;;;5020681;28;20060;-65
2021/07/19 09:16:57;;;;;;;13.27;9.38;;;31.80;58.70;;;;;;5014718;28;20508;-65
2021/07/19 09:19:24;;;;;;;12.32;9.32;;;31.80;58.80;;;;;;5017974;28;20167;-65
2021/07/19 09:22:01;;;;;;;12.77;8.55;;;31.70;58.60;;;;;;5012890;28;20466;-64
2021/07/19 09:24:32;;;;;;;10.00;8.82;;;31.70;58.70;;;;;;5016097;28;20049;-64
2021/07/19 09:26:58;;;;;;;10.80;8.88;;;31.70;58.70;;;;;;5015059;28;20542;-64
2021/07/19 09:29:25;;;;;;;13.18;9.27;;;31.60;58.80;;;;;;5016469;28;20403;-64
2021/07/19 09:31:56;;;;;;;11.13;8.63;;;31.60;58.70;;;;;;5014117;28;20045;-65
2021/07/19 09:34:29;;;;;;;10.73;9.40;;;31.60;58.60;;;;;;5018822;28;20118;-65
2021/07/19 09:37:01;;;;;;;16.15;9.82;;;31.60;58.60;;;;;;5014935;28;20033;-64
2021/07/19 09:39:32;;;;;;;11.77;9.18;;;31.60;58.50;;;;;;5016905;28;20370;-64
2021/07/19 09:42:10;;;;;;;10.90;8.75;;;31.60;58.40;;;;;;5019663;28;20037;-64
2021/07/19 09:44:36;;;;;;;12.35;9.93;;;31.60;58.20;;;;;;5021288;28;20048;-64
2021/07/19 09:47:05;;;;;;;12.88;8.90;;;31.60;58.20;;;;;;5026345;28;20091;-64
2021/07/19 09:49:32;;;;;;;10.55;8.75;;;31.60;58.30;;;;;;5011935;28;20025;-65
2021/07/19 09:52:00;;;;;;;17.67;10.18;;;31.60;58.20;;;;;;5018258;28;20040;-64
2021/07/19 09:54:52;;;;;;;11.98;9.45;;;31.50;58.00;;;;;;5017036;28;21761;-64
2021/07/19 09:57:23;;;;;;;11.38;8.55;;;31.50;58.20;;;;;;5007484;28;20465;-64
2021/07/19 09:59:49;;;;;;;10.55;9.35;;;31.50;58.30;;;;;;5010467;28;20049;-64
2021/07/19 10:02:32;;;;;;;10.85;9.07;;;31.50;58.60;;;;;;4999185;28;20037;-64
2021/07/19 10:04:58;;;;;;;12.13;8.77;;;31.50;58.60;;;;;;5005086;28;20025;-63
2021/07/19 10:07:24;;;;;;;12.93;8.93;;;31.40;58.60;;;;;;5014614;28;20041;-63
2021/07/19 10:09:55;;;;;;;12.23;9.85;;;31.40;58.60;;;;;;5017016;28;20053;-64
2021/07/19 10:12:21;;;;;;;12.75;9.32;;;31.40;58.80;;;;;;5022434;28;20037;-64
2021/07/19 10:14:48;;;;;;;15.52;9.30;;;31.40;59.10;;;;;;5016928;28;20017;-64
2021/07/19 10:17:15;;;;;;;11.82;9.00;;;31.40;59.20;;;;;;5016136;28;20036;-64
2021/07/19 10:19:41;;;;;;;11.65;8.63;;;31.40;59.30;;;;;;5009460;28;20052;-63
2021/07/19 10:22:10;;;;;;;17.08;9.82;;;31.40;59.20;;;;;;5014144;28;20045;-63
2021/07/19 10:24:39;;;;;;;11.55;8.82;;;31.40;59.40;;;;;;5012899;28;20029;-63
2021/07/19 10:27:04;;;;;;;13.20;9.73;;;31.40;59.30;;;;;;5016919;28;20033;-64
2021/07/19 10:29:31;;;;;;;12.27;9.35;;;31.40;59.40;;;;;;5019760;28;20044;-64
2021/07/19 10:31:56;;;;;;;12.10;9.60;;;31.40;59.50;;;;;;5014839;28;20087;-64
2021/07/19 10:34:23;;;;;;;12.00;9.57;;;31.40;59.80;;;;;;5014624;28;20029;-63
2021/07/19 10:36:53;;;;;;;11.02;9.65;;;31.40;60.10;;;;;;5015119;28;20053;-64
2021/07/19 10:39:23;;;;;;;12.65;9.30;;;31.40;59.70;;;;;;5018999;28;20055;-64
2021/07/19 10:42:01;;;;;;;12.07;9.95;;;31.30;59.50;;;;;;5018698;28;20519;-63
2021/07/19 10:44:33;;;;;;;12.55;9.00;;;31.30;59.70;;;;;;5016152;28;20041;-63
2021/07/19 10:47:14;;;;;;;11.30;9.52;;;31.30;59.70;;;;;;5018579;28;20106;-64
2021/07/19 10:49:43;;;;;;;;;;;31.30;59.30;;;;;;5017239;28;20088;-64
2021/07/19 10:52:12;;;;;;;10.43;8.53;;;31.30;59.30;;;;;;5010873;28;19913;-64
2021/07/19 10:54:48;;;;;;;13.55;9.52;;;31.20;59.30;;;;;;5016034;28;20275;-64
2021/07/19 10:57:17;;;;;;;13.07;8.80;;;31.20;59.00;;;;;;5015954;28;20502;-64
2021/07/19 10:59:45;;;;;;;12.00;9.27;;;31.20;59.10;;;;;;5013894;28;20029;-64
2021/07/19 11:02:27;;;;;;;15.73;9.60;;;31.20;59.00;;;;;;5014358;28;20075;-64
2021/07/19 11:04:52;;;;;;;10.43;8.82;;;31.30;58.80;;;;;;5014466;28;20132;-64
2021/07/19 11:07:19;;;;;;;12.20;8.73;;;31.20;58.50;;;;;;5017553;28;20098;-65
2021/07/19 11:09:44;;;;;;;12.07;8.73;;;31.20;58.80;;;;;;5016844;28;20691;-63
2021/07/19 11:12:14;;;;;;;12.25;8.13;;;31.20;58.80;;;;;;5017105;28;20104;-65
2021/07/19 11:14:49;;;;;;;12.85;8.90;;;31.20;58.80;;;;;;5021998;28;20462;-65
2021/07/19 11:17:17;;;;;;;13.73;9.30;;;31.20;59.10;;;;;;5018829;28;20785;-67
2021/07/19 11:19:43;;;;;;;11.65;8.45;;;31.20;58.70;;;;;;5013804;28;20043;-65
2021/07/19 11:22:22;;;;;;;11.80;8.23;;;31.30;58.90;;;;;;5013986;28;20128;-63
2021/07/19 11:24:56;;;;;;;14.68;8.90;;;31.30;58.90;;;;;;5017929;28;20032;-63
2021/07/19 11:27:48;;;;;;;13.52;8.77;;;31.30;58.60;;;;;;5009394;28;20124;-64
2021/07/19 11:30:22;;;;;;;12.85;7.95;;;31.30;58.60;;;;;;5010527;28;20045;-65
2021/07/19 11:32:49;;;;;;;10.30;7.38;;;31.30;58.60;;;;;;5005434;28;20076;-66
2021/07/19 11:35:22;;;;;;;16.65;8.63;;;31.30;57.90;;;;;;5010063;28;20090;-63
2021/07/19 11:37:56;;;;;;;9.20;7.82;;;31.30;58.20;;;;;;5014597;28;20029;-63
2021/07/19 11:40:29;;;;;;;9.68;7.95;;;31.30;57.90;;;;;;5013237;28;20048;-62
2021/07/19 11:42:55;;;;;;;11.45;8.38;;;31.30;57.80;;;;;;5010975;28;20033;-63
2021/07/19 11:45:22;;;;;;;11.32;8.20;;;31.30;57.90;;;;;;5010680;28;20519;-62
2021/07/19 11:47:53;;;;;;;10.35;8.25;;;31.30;57.90;;;;;;5016461;28;20374;-63
2021/07/19 11:50:24;;;;;;;10.18;8.65;;;31.40;58.00;;;;;;5011665;28;20492;-63
2021/07/19 11:52:56;;;;;;;18.30;8.02;;;31.40;58.30;;;;;;5012296;28;20086;-64
2021/07/19 11:55:24;;;;;;;14.98;6.82;;;31.40;58.60;;;;;;5009641;28;20527;-64
2021/07/19 11:58:00;;;;;;;12.65;5.47;;;31.40;58.90;;;;;;5004214;28;20034;-66
2021/07/19 12:00:46;;;;;;;11.82;5.32;;;31.10;58.90;;;;;;5007789;28;20044;-64
2021/07/19 12:03:14;;;;;;;7.13;5.30;;;30.80;58.70;;;;;;5003957;28;20987;-65
2021/07/19 12:05:54;;;;;;;13.60;6.00;;;30.50;58.90;;;;;;5005255;28;20041;-65
2021/07/19 12:08:31;;;;;;;8.98;4.93;;;30.20;59.00;;;;;;5007677;28;20052;-64
2021/07/19 12:11:10;;;;;;;9.48;5.13;;;29.90;59.80;;;;;;5012374;28;20034;-64
2021/07/19 12:13:38;;;;;;;6.50;4.67;;;29.60;60.80;;;;;;5011524;28;20036;-63
2021/07/19 12:16:05;;;;;;;8.50;5.57;;;29.40;61.60;;;;;;5013281;28;20274;-61
2021/07/19 12:18:36;;;;;;;10.30;5.35;;;29.10;62.20;;;;;;5017003;28;20033;-60
2021/07/19 12:21:06;;;;;;;7.90;5.38;;;29.00;63.00;;;;;;5014059;28;20053;-59
2021/07/19 12:23:41;;;;;;;7.05;4.85;;;28.90;63.30;;;;;;5018915;28;20665;-59
2021/07/19 12:26:08;;;;;;;8.38;4.88;;;28.70;63.90;;;;;;5019540;28;20092;-59
2021/07/19 12:28:34;;;;;;;8.85;5.10;;;28.60;64.10;;;;;;5015536;28;20075;-59
2021/07/19 12:31:23;;;;;;;6.38;3.72;;;28.40;65.00;;;;;;5018127;28;20037;-58
2021/07/19 12:33:49;;;;;;;5.75;4.82;;;28.20;65.80;;;;;;5015777;28;20029;-59
2021/07/19 12:36:20;;;;;;;7.78;4.93;;;28.00;65.90;;;;;;5017872;28;20045;-61
2021/07/19 12:38:47;;;;;;;8.90;5.05;;;28.00;66.50;;;;;;5017180;28;20034;-61
2021/07/19 12:41:15;;;;;;;7.72;4.93;;;27.90;67.30;;;;;;5016782;28;20038;-60